Time;durP1;ratioP1;P1;durP2;ratioP2;P2;SDS_P1;SDS_P2;PMS_P1;PMS_P2;Temp;Humidity;BMP_temperature;BMP_pressure;BME280_temperature;BME280_humidity;BME280_pressure;Samples;Min_cycle;Max_cycle;Signal;HPM_P1;HPM_P2
2022/03/28 00:00:59;;;;;;;35.50;7.88;;;;;;;;;;4992696;28;20533;-67
2022/03/28 00:03:26;;;;;;;78.60;8.68;;;;;;;;;;4990722;28;20046;-67
2022/03/28 00:05:52;;;;;;;125.80;10.23;;;;;;;;;;4979213;28;20098;-67
2022/03/28 00:08:18;;;;;;;58.85;10.18;;;;;;;;;;4988689;28;20046;-67
2022/03/28 00:10:44;;;;;;;119.85;11.68;;;;;;;;;;4991125;28;20043;-66
2022/03/28 00:13:10;;;;;;;58.83;9.55;;;;;;;;;;4991917;28;20093;-66
2022/03/28 00:15:36;;;;;;;52.17;12.48;;;;;;;;;;4987795;28;20126;-66
2022/03/28 00:18:02;;;;;;;48.05;12.15;;;;;;;;;;4986204;28;20505;-68
2022/03/28 00:20:28;;;;;;;52.33;12.75;;;;;;;;;;4978552;28;20213;-67
2022/03/28 00:22:54;;;;;;;50.45;13.43;;;;;;;;;;4993805;28;20065;-67
2022/03/28 00:25:20;;;;;;;100.00;16.20;;;;;;;;;;4978553;28;20042;-67
2022/03/28 00:27:46;;;;;;;109.38;16.30;;;;;;;;;;4994445;28;20043;-67
2022/03/28 00:30:13;;;;;;;54.17;14.63;;;;;;;;;;4994834;28;20113;-67
2022/03/28 00:32:40;;;;;;;61.45;16.17;;;;;;;;;;4996229;28;20402;-67
2022/03/28 00:35:06;;;;;;;79.15;15.40;;;;;;;;;;4988864;28;20090;-67
2022/03/28 00:37:32;;;;;;;64.85;15.73;;;;;;;;;;4961297;28;20055;-67
2022/03/28 00:39:58;;;;;;;51.08;15.18;;;;;;;;;;4981734;28;20058;-67
2022/03/28 00:42:24;;;;;;;59.38;14.23;;;;;;;;;;4992176;28;20050;-67
2022/03/28 00:44:51;;;;;;;35.85;15.63;;;;;;;;;;4994097;28;20094;-67
2022/03/28 00:47:17;;;;;;;44.08;15.85;;;;;;;;;;4995901;28;20052;-67
2022/03/28 00:49:43;;;;;;;48.97;16.02;;;;;;;;;;4994610;28;20046;-67
2022/03/28 00:52:09;;;;;;;36.95;17.17;;;;;;;;;;4990324;28;20038;-67
2022/03/28 00:54:36;;;;;;;48.53;17.35;;;;;;;;;;4992263;28;20472;-67
2022/03/28 00:57:02;;;;;;;45.92;16.92;;;;;;;;;;4993856;28;20046;-67
2022/03/28 00:59:32;;;;;;;66.45;16.92;;;;;;;;;;4982542;28;20494;-67
2022/03/28 01:01:58;;;;;;;74.97;18.38;;;;;;;;;;4985344;28;20046;-67
2022/03/28 01:04:24;;;;;;;75.80;17.38;;;;;;;;;;4996797;28;20893;-67
2022/03/28 01:06:51;;;;;;;93.57;17.48;;;;;;;;;;4995548;28;20189;-66
2022/03/28 01:09:18;;;;;;;57.28;16.85;;;;;;;;;;4994575;28;20096;-67
2022/03/28 01:11:45;;;;;;;25.95;15.55;;;;;;;;;;4991835;28;20042;-66
2022/03/28 01:14:11;;;;;;;35.42;16.55;;;;;;;;;;4994060;28;20042;-67
2022/03/28 01:19:23;;;;;;;79.85;16.23;;;;;;;;;;4988293;28;20046;-67
2022/03/28 01:21:49;;;;;;;54.58;15.07;;;;;;;;;;4983197;28;20097;-67
2022/03/28 01:24:15;;;;;;;67.10;17.08;;;;;;;;;;4995763;28;20042;-67
2022/03/28 01:26:41;;;;;;;55.40;18.38;;;;;;;;;;4995494;28;20141;-67
2022/03/28 01:29:08;;;;;;;71.28;18.50;;;;;;;;;;4989634;28;20042;-67
2022/03/28 01:31:38;;;;;;;54.00;18.05;;;;;;;;;;4982671;28;20582;-67
2022/03/28 01:34:04;;;;;;;85.22;19.15;;;;;;;;;;4993625;28;20053;-67
2022/03/28 01:36:30;;;;;;;59.50;18.48;;;;;;;;;;4992698;28;20034;-67
2022/03/28 01:38:56;;;;;;;111.10;19.98;;;;;;;;;;4981450;28;20058;-66
2022/03/28 01:41:22;;;;;;;165.73;20.95;;;;;;;;;;4985583;28;20541;-67
2022/03/28 01:43:48;;;;;;;231.02;21.38;;;;;;;;;;4979345;28;20100;-68
2022/03/28 01:46:14;;;;;;;210.52;19.02;;;;;;;;;;4993249;28;20497;-68
2022/03/28 01:48:40;;;;;;;60.92;17.30;;;;;;;;;;4992783;28;20408;-67
2022/03/28 01:51:06;;;;;;;102.50;18.77;;;;;;;;;;4983655;28;20133;-68
2022/03/28 01:53:32;;;;;;;63.10;17.05;;;;;;;;;;4993081;28;20046;-67
2022/03/28 01:55:59;;;;;;;101.47;19.00;;;;;;;;;;4993167;28;20112;-68
2022/03/28 01:58:25;;;;;;;157.98;18.25;;;;;;;;;;4983371;28;20050;-68
2022/03/28 02:00:51;;;;;;;160.57;20.08;;;;;;;;;;4993991;28;20121;-67
2022/03/28 02:03:16;;;;;;;154.20;20.35;;;;;;;;;;4975573;28;20134;-67
2022/03/28 02:05:42;;;;;;;131.98;19.67;;;;;;;;;;4993695;28;20042;-67
2022/03/28 02:08:09;;;;;;;97.40;20.13;;;;;;;;;;4995055;28;20100;-67
2022/03/28 02:10:35;;;;;;;66.55;18.90;;;;;;;;;;4984216;28;20053;-66
2022/03/28 02:13:01;;;;;;;79.30;20.33;;;;;;;;;;4994302;28;20413;-67
2022/03/28 02:15:27;;;;;;;131.10;21.40;;;;;;;;;;4991711;28;20050;-67
2022/03/28 02:17:53;;;;;;;191.75;21.63;;;;;;;;;;4980975;28;20038;-67
2022/03/28 02:20:19;;;;;;;205.15;21.92;;;;;;;;;;4980102;28;20474;-67
2022/03/28 02:22:49;;;;;;;383.88;25.30;;;;;;;;;;4982522;28;20124;-66
2022/03/28 02:25:15;;;;;;;155.27;21.92;;;;;;;;;;4986522;28;20081;-67
2022/03/28 02:27:42;;;;;;;306.55;23.38;;;;;;;;;;4976378;28;20043;-68
2022/03/28 02:30:09;;;;;;;132.27;22.08;;;;;;;;;;4971635;28;20039;-67
2022/03/28 02:32:35;;;;;;;125.65;22.20;;;;;;;;;;4990350;28;20058;-67
2022/03/28 02:35:02;;;;;;;154.00;21.02;;;;;;;;;;4994026;28;20453;-67
2022/03/28 02:37:28;;;;;;;99.57;19.23;;;;;;;;;;4992465;28;20042;-67
2022/03/28 02:39:54;;;;;;;248.90;22.63;;;;;;;;;;4993750;28;20058;-67
2022/03/28 02:42:24;;;;;;;118.55;19.02;;;;;;;;;;4986678;28;20049;-67
2022/03/28 02:44:51;;;;;;;102.32;16.83;;;;;;;;;;4983708;28;20599;-67
2022/03/28 02:47:18;;;;;;;46.78;15.85;;;;;;;;;;4991901;28;20387;-67
2022/03/28 02:49:44;;;;;;;219.40;18.88;;;;;;;;;;4977756;28;20050;-67
2022/03/28 02:52:10;;;;;;;141.15;16.92;;;;;;;;;;4992657;28;20070;-67
2022/03/28 02:54:36;;;;;;;147.50;19.30;;;;;;;;;;4988581;28;20076;-67
2022/03/28 02:57:02;;;;;;;116.93;18.70;;;;;;;;;;4986376;28;20458;-67
2022/03/28 02:59:28;;;;;;;113.13;18.50;;;;;;;;;;4973975;28;20490;-67
2022/03/28 03:01:55;;;;;;;105.68;17.65;;;;;;;;;;4991393;28;20038;-68
2022/03/28 03:04:21;;;;;;;156.27;18.70;;;;;;;;;;4987645;28;20462;-67
2022/03/28 03:06:47;;;;;;;136.10;20.00;;;;;;;;;;4991835;28;20080;-67
2022/03/28 03:09:13;;;;;;;167.20;19.70;;;;;;;;;;4993160;28;20038;-68
2022/03/28 03:11:40;;;;;;;172.18;19.00;;;;;;;;;;4981779;28;20109;-67
2022/03/28 03:14:06;;;;;;;119.30;16.98;;;;;;;;;;4992946;28;20489;-67
2022/03/28 03:16:32;;;;;;;111.85;18.48;;;;;;;;;;4993715;28;20039;-68
2022/03/28 03:18:58;;;;;;;113.07;18.58;;;;;;;;;;4972471;28;20042;-68
2022/03/28 03:21:24;;;;;;;49.17;18.58;;;;;;;;;;4990146;28;20038;-66
2022/03/28 03:23:50;;;;;;;122.93;20.38;;;;;;;;;;4985742;28;20074;-67
2022/03/28 03:26:17;;;;;;;146.13;19.20;;;;;;;;;;4987603;28;20081;-67
2022/03/28 03:28:43;;;;;;;78.15;20.60;;;;;;;;;;4986698;28;20098;-67
2022/03/28 03:31:09;;;;;;;95.57;23.10;;;;;;;;;;4986838;28;20034;-67
2022/03/28 03:33:35;;;;;;;33.13;18.73;;;;;;;;;;4992779;28;20047;-67
2022/03/28 03:36:01;;;;;;;35.00;17.63;;;;;;;;;;4986792;28;20454;-67
2022/03/28 03:38:27;;;;;;;43.00;18.17;;;;;;;;;;4974450;28;20046;-67
2022/03/28 03:40:54;;;;;;;30.92;17.42;;;;;;;;;;4985325;28;20054;-67
2022/03/28 03:43:21;;;;;;;35.70;18.48;;;;;;;;;;4980379;28;20058;-67
2022/03/28 03:45:48;;;;;;;33.85;18.02;;;;;;;;;;4983598;28;20042;-67
2022/03/28 03:48:14;;;;;;;58.10;20.35;;;;;;;;;;4992626;28;20136;-66
2022/03/28 03:50:41;;;;;;;40.72;19.40;;;;;;;;;;4965320;28;20541;-66
2022/03/28 03:53:07;;;;;;;45.85;20.08;;;;;;;;;;4988052;28;20494;-66
2022/03/28 03:55:34;;;;;;;40.28;20.15;;;;;;;;;;4983267;28;20170;-66
2022/03/28 03:58:00;;;;;;;40.67;20.48;;;;;;;;;;4988112;28;20414;-66
2022/03/28 04:00:26;;;;;;;37.67;19.40;;;;;;;;;;4983199;28;20093;-67
2022/03/28 04:02:52;;;;;;;33.50;19.50;;;;;;;;;;4987815;28;20050;-67
2022/03/28 04:05:18;;;;;;;38.95;21.05;;;;;;;;;;4991974;28;20038;-67
2022/03/28 04:07:44;;;;;;;32.45;19.90;;;;;;;;;;4987351;28;20042;-67
2022/03/28 04:10:10;;;;;;;29.23;19.33;;;;;;;;;;4986869;28;20047;-67
2022/03/28 04:12:37;;;;;;;35.92;20.10;;;;;;;;;;4967948;28;20564;-66
2022/03/28 04:15:03;;;;;;;30.58;19.42;;;;;;;;;;4975776;28;20054;-67
2022/03/28 04:17:29;;;;;;;27.95;19.95;;;;;;;;;;4974894;28;20490;-67
2022/03/28 04:19:56;;;;;;;27.98;19.13;;;;;;;;;;4980681;28;20081;-66
2022/03/28 04:22:22;;;;;;;28.88;20.08;;;;;;;;;;4985883;28;20034;-67
2022/03/28 04:24:48;;;;;;;31.67;21.05;;;;;;;;;;4967660;28;20057;-67
2022/03/28 04:27:14;;;;;;;34.55;21.98;;;;;;;;;;4992839;28;20035;-67
2022/03/28 04:29:40;;;;;;;37.58;22.20;;;;;;;;;;4991889;28;20073;-67
2022/03/28 04:32:06;;;;;;;34.38;22.15;;;;;;;;;;4979773;28;20039;-67
2022/03/28 04:34:32;;;;;;;33.00;22.42;;;;;;;;;;4979242;28;20522;-67
2022/03/28 04:36:58;;;;;;;34.33;21.92;;;;;;;;;;4979881;28;20137;-68
2022/03/28 04:39:24;;;;;;;35.53;22.35;;;;;;;;;;4985784;28;20042;-68
2022/03/28 04:41:50;;;;;;;33.47;20.38;;;;;;;;;;4966408;28;20149;-67
2022/03/28 04:44:16;;;;;;;33.67;21.35;;;;;;;;;;4990304;28;20232;-67
2022/03/28 04:46:42;;;;;;;30.73;19.75;;;;;;;;;;4984797;28;20085;-66
2022/03/28 04:49:13;;;;;;;27.63;18.10;;;;;;;;;;4984335;28;20501;-68
2022/03/28 04:51:39;;;;;;;24.67;17.75;;;;;;;;;;4990481;28;20046;-68
2022/03/28 04:54:05;;;;;;;24.63;17.38;;;;;;;;;;4980680;28;20556;-66
2022/03/28 04:56:34;;;;;;;24.23;17.20;;;;;;;;;;4990990;28;20122;-68
2022/03/28 04:59:00;;;;;;;21.63;16.55;;;;;;;;;;4978424;28;20042;-67
2022/03/28 05:01:26;;;;;;;23.48;15.50;;;;;;;;;;4970674;28;20486;-67
2022/03/28 05:03:52;;;;;;;22.92;17.15;;;;;;;;;;4987991;28;20404;-67
2022/03/28 05:06:18;;;;;;;25.92;18.55;;;;;;;;;;4990265;28;20042;-66
2022/03/28 05:08:44;;;;;;;25.60;18.35;;;;;;;;;;4982413;28;20035;-67
2022/03/28 05:11:10;;;;;;;26.77;17.83;;;;;;;;;;4991193;28;20053;-66
2022/03/28 05:13:35;;;;;;;32.47;19.70;;;;;;;;;;4992997;28;20054;-67
2022/03/28 05:16:02;;;;;;;29.15;18.88;;;;;;;;;;4995684;28;20498;-67
2022/03/28 05:18:28;;;;;;;31.75;20.50;;;;;;;;;;4953662;28;20043;-66
2022/03/28 05:20:54;;;;;;;31.83;18.65;;;;;;;;;;4988920;28;20516;-68
2022/03/28 05:23:20;;;;;;;25.98;17.45;;;;;;;;;;4990127;28;20047;-69
2022/03/28 05:25:46;;;;;;;30.38;19.58;;;;;;;;;;4995140;28;20053;-68
2022/03/28 05:28:12;;;;;;;26.70;19.10;;;;;;;;;;4976873;28;20069;-68
2022/03/28 05:30:38;;;;;;;28.75;19.42;;;;;;;;;;4994448;28;20461;-67
2022/03/28 05:33:04;;;;;;;28.50;19.70;;;;;;;;;;4976517;28;20046;-67
2022/03/28 05:35:30;;;;;;;29.10;19.83;;;;;;;;;;4965901;28;20046;-67
2022/03/28 05:37:56;;;;;;;36.35;20.35;;;;;;;;;;4990182;28;20069;-68
2022/03/28 05:40:22;;;;;;;33.75;20.13;;;;;;;;;;4987886;28;20043;-67
2022/03/28 05:42:48;;;;;;;29.52;19.48;;;;;;;;;;4988541;28;20113;-66
2022/03/28 05:45:14;;;;;;;26.50;18.20;;;;;;;;;;4993372;28;20453;-66
2022/03/28 05:47:40;;;;;;;28.48;19.25;;;;;;;;;;4985525;28;20050;-67
2022/03/28 05:50:07;;;;;;;27.92;16.75;;;;;;;;;;4978049;28;20085;-67
2022/03/28 05:52:33;;;;;;;28.40;17.88;;;;;;;;;;4987775;28;20050;-66
2022/03/28 05:54:59;;;;;;;28.92;18.38;;;;;;;;;;4989272;28;20494;-66
2022/03/28 05:57:25;;;;;;;33.00;18.77;;;;;;;;;;4982880;28;20059;-66
2022/03/28 05:59:51;;;;;;;30.02;18.05;;;;;;;;;;4977105;28;20050;-67
2022/03/28 06:02:17;;;;;;;26.83;18.15;;;;;;;;;;4993798;28;20038;-67
2022/03/28 06:04:43;;;;;;;32.53;18.55;;;;;;;;;;4968651;28;20038;-67
2022/03/28 06:07:09;;;;;;;32.65;19.55;;;;;;;;;;4993976;28;20100;-67
2022/03/28 06:09:35;;;;;;;33.28;18.13;;;;;;;;;;4995253;28;20069;-68
2022/03/28 06:12:01;;;;;;;35.78;19.65;;;;;;;;;;4982772;28;20082;-68
2022/03/28 06:14:26;;;;;;;27.45;17.75;;;;;;;;;;4992935;28;20058;-67
2022/03/28 06:16:52;;;;;;;25.00;15.75;;;;;;;;;;4983014;28;20049;-67
2022/03/28 06:19:18;;;;;;;26.05;16.55;;;;;;;;;;4994572;28;20050;-67
2022/03/28 06:21:44;;;;;;;28.92;17.25;;;;;;;;;;4990884;28;20054;-67
2022/03/28 06:24:10;;;;;;;30.13;17.25;;;;;;;;;;4991702;28;20057;-66
2022/03/28 06:26:36;;;;;;;34.67;18.00;;;;;;;;;;4977431;28;20475;-67
2022/03/28 06:29:03;;;;;;;28.42;18.10;;;;;;;;;;4987017;28;20046;-67
2022/03/28 06:31:29;;;;;;;30.98;17.42;;;;;;;;;;4992837;28;20091;-67
2022/03/28 06:34:01;;;;;;;24.70;14.52;;;;;;;;;;4990195;28;20100;-67
2022/03/28 06:36:27;;;;;;;27.52;16.40;;;;;;;;;;4989144;28;20517;-67
2022/03/28 06:38:53;;;;;;;27.15;16.27;;;;;;;;;;4988920;28;20038;-67
2022/03/28 06:41:19;;;;;;;31.98;16.15;;;;;;;;;;4982512;28;20061;-67
2022/03/28 06:43:45;;;;;;;29.02;16.08;;;;;;;;;;4994893;28;20089;-67
2022/03/28 06:46:11;;;;;;;24.95;13.85;;;;;;;;;;4988328;28;20074;-67
2022/03/28 06:48:37;;;;;;;27.30;14.20;;;;;;;;;;4991715;28;20166;-67
2022/03/28 06:51:06;;;;;;;26.50;12.95;;;;;;;;;;4994401;28;20487;-67
2022/03/28 06:53:32;;;;;;;17.02;10.13;;;;;;;;;;4981106;28;20059;-67
2022/03/28 06:55:58;;;;;;;19.67;10.98;;;;;;;;;;4990073;28;20041;-67
2022/03/28 06:58:24;;;;;;;17.45;10.20;;;;;;;;;;4988909;28;20055;-67
2022/03/28 07:00:51;;;;;;;16.92;9.40;;;;;;;;;;4990231;28;20054;-67
2022/03/28 07:03:17;;;;;;;20.17;9.98;;;;;;;;;;4986645;28;20053;-67
2022/03/28 07:05:43;;;;;;;16.10;8.63;;;;;;;;;;4971573;28;20122;-67
2022/03/28 07:08:09;;;;;;;22.15;9.65;;;;;;;;;;4961767;28;20134;-67
2022/03/28 07:10:35;;;;;;;17.98;9.10;;;;;;;;;;4991725;28;20046;-66
2022/03/28 07:13:01;;;;;;;17.30;8.10;;;;;;;;;;4985411;28;20105;-66
2022/03/28 07:15:27;;;;;;;14.05;7.05;;;;;;;;;;4964178;28;20038;-67
2022/03/28 07:17:55;;;;;;;18.13;8.98;;;;;;;;;;4986917;28;20490;-66
2022/03/28 07:20:22;;;;;;;15.50;8.10;;;;;;;;;;4993324;28;20046;-66
2022/03/28 07:22:48;;;;;;;15.25;8.23;;;;;;;;;;4982663;28;20039;-66
2022/03/28 07:25:14;;;;;;;16.85;10.45;;;;;;;;;;4977031;28;20125;-66
2022/03/28 07:27:41;;;;;;;15.93;8.95;;;;;;;;;;4988636;28;20742;-67
2022/03/28 07:30:08;;;;;;;18.75;8.82;;;;;;;;;;4992447;28;21206;-66
2022/03/28 07:32:34;;;;;;;15.23;8.23;;;;;;;;;;4984329;28;20046;-66
2022/03/28 07:35:01;;;;;;;15.40;8.32;;;;;;;;;;4957205;28;20039;-66
2022/03/28 07:37:27;;;;;;;13.43;8.30;;;;;;;;;;4983842;28;20053;-67
2022/03/28 07:39:53;;;;;;;13.57;8.35;;;;;;;;;;4969648;28;20059;-67
2022/03/28 07:42:19;;;;;;;16.75;8.93;;;;;;;;;;4955539;28;20098;-67
2022/03/28 07:44:47;;;;;;;14.32;8.25;;;;;;;;;;4959416;28;20051;-67
2022/03/28 07:47:13;;;;;;;14.77;8.70;;;;;;;;;;4955029;29;20051;-67
2022/03/28 07:49:39;;;;;;;17.95;10.48;;;;;;;;;;4955121;29;20106;-67
2022/03/28 07:52:07;;;;;;;19.88;11.45;;;;;;;;;;4972887;28;20449;-67
2022/03/28 07:54:34;;;;;;;14.48;8.50;;;;;;;;;;4973694;28;20413;-67
2022/03/28 07:57:00;;;;;;;15.07;8.52;;;;;;;;;;4955187;28;20043;-67
2022/03/28 07:59:26;;;;;;;13.73;8.43;;;;;;;;;;4973835;28;20107;-67
2022/03/28 08:01:52;;;;;;;11.32;6.72;;;;;;;;;;4973410;28;20046;-67
2022/03/28 08:04:18;;;;;;;11.48;5.60;;;;;;;;;;4974236;28;20401;-66
2022/03/28 08:06:44;;;;;;;10.43;6.80;;;;;;;;;;4972362;28;20382;-65
2022/03/28 08:09:10;;;;;;;9.55;5.68;;;;;;;;;;4959508;28;20035;-66
2022/03/28 08:11:36;;;;;;;10.43;6.20;;;;;;;;;;4939548;29;20402;-66
2022/03/28 08:14:04;;;;;;;9.98;6.07;;;;;;;;;;4965104;28;20050;-67
2022/03/28 08:16:30;;;;;;;10.32;6.00;;;;;;;;;;4955703;28;20051;-67
2022/03/28 08:18:56;;;;;;;11.55;6.30;;;;;;;;;;4967821;28;20081;-74
2022/03/28 08:21:23;;;;;;;9.70;6.10;;;;;;;;;;4956265;28;20043;-68
2022/03/28 08:23:49;;;;;;;10.25;6.25;;;;;;;;;;4939840;29;20055;-68
2022/03/28 08:26:15;;;;;;;11.52;6.45;;;;;;;;;;4968212;28;20057;-71
2022/03/28 08:28:42;;;;;;;11.00;6.38;;;;;;;;;;4969208;28;20065;-69
2022/03/28 08:31:09;;;;;;;13.02;6.60;;;;;;;;;;4973043;28;20078;-68
2022/03/28 08:33:35;;;;;;;11.48;6.53;;;;;;;;;;4960646;28;20185;-71
2022/03/28 08:36:01;;;;;;;9.85;6.43;;;;;;;;;;4971012;28;20046;-70
2022/03/28 08:38:27;;;;;;;10.60;6.30;;;;;;;;;;4956179;28;20043;-69
2022/03/28 08:40:54;;;;;;;12.75;7.53;;;;;;;;;;4968991;28;20054;-68
2022/03/28 08:43:21;;;;;;;11.73;5.50;;;;;;;;;;4979679;28;20776;-69
2022/03/28 08:45:49;;;;;;;9.82;5.38;;;;;;;;;;4974892;28;20043;-70
2022/03/28 08:48:15;;;;;;;8.25;5.07;;;;;;;;;;4996737;28;20039;-68
2022/03/28 08:50:46;;;;;;;7.90;5.13;;;;;;;;;;4992530;28;20081;-69
2022/03/28 08:53:13;;;;;;;10.90;6.20;;;;;;;;;;4971763;28;20046;-69
2022/03/28 08:55:43;;;;;;;12.85;7.10;;;;;;;;;;4987968;28;20053;-69
2022/03/28 08:58:09;;;;;;;9.75;6.05;;;;;;;;;;4978292;28;20042;-73
2022/03/28 09:00:35;;;;;;;9.13;4.65;;;;;;;;;;4960025;28;20046;-68
2022/03/28 09:03:03;;;;;;;7.45;4.72;;;;;;;;;;4988023;28;20145;-73
2022/03/28 09:05:33;;;;;;;9.95;5.80;;;;;;;;;;4996433;28;20054;-73
2022/03/28 09:08:00;;;;;;;7.35;4.85;;;;;;;;;;4988403;28;20129;-67
2022/03/28 09:10:34;;;;;;;7.32;4.90;;;;;;;;;;4989441;28;20061;-75
2022/03/28 09:13:04;;;;;;;7.40;4.40;;;;;;;;;;4971536;28;20062;-68
2022/03/28 09:15:41;;;;;;;8.20;4.78;;;;;;;;;;4980770;28;20081;-68
2022/03/28 09:18:08;;;;;;;8.55;4.75;;;;;;;;;;4988966;28;20055;-68
2022/03/28 09:20:36;;;;;;;8.07;4.82;;;;;;;;;;4973695;28;20051;-73
2022/03/28 09:23:22;;;;;;;8.38;5.45;;;;;;;;;;4982374;28;20049;-68
2022/03/28 09:25:51;;;;;;;9.10;5.20;;;;;;;;;;4965999;28;20049;-68
2022/03/28 09:28:25;;;;;;;9.05;5.85;;;;;;;;;;4979004;28;20042;-72
2022/03/28 09:30:50;;;;;;;8.23;5.90;;;;;;;;;;4987395;28;20100;-73
2022/03/28 09:33:18;;;;;;;8.13;5.38;;;;;;;;;;4994853;28;20493;-68
2022/03/28 09:35:48;;;;;;;8.75;5.88;;;;;;;;;;4991941;28;20543;-68
2022/03/28 09:38:18;;;;;;;8.27;5.63;;;;;;;;;;4986447;28;20505;-68
2022/03/28 09:40:49;;;;;;;8.85;5.60;;;;;;;;;;4994858;28;20078;-67
2022/03/28 09:43:15;;;;;;;9.18;5.80;;;;;;;;;;4995266;28;20058;-71
2022/03/28 09:45:42;;;;;;;9.40;6.63;;;;;;;;;;4990211;28;20047;-66
2022/03/28 09:48:09;;;;;;;9.07;5.95;;;;;;;;;;4963286;28;20054;-66
2022/03/28 09:50:40;;;;;;;10.18;6.47;;;;;;;;;;4981587;28;20050;-67
2022/03/28 09:53:10;;;;;;;9.30;6.70;;;;;;;;;;4985609;28;20387;-67
2022/03/28 09:55:46;;;;;;;9.07;6.70;;;;;;;;;;4994297;28;20851;-75
2022/03/28 09:58:31;;;;;;;10.40;6.90;;;;;;;;;;4994841;28;20042;-74
2022/03/28 10:00:57;;;;;;;9.75;6.80;;;;;;;;;;4980143;28;20053;-68
2022/03/28 10:03:23;;;;;;;9.80;6.80;;;;;;;;;;4944685;28;20074;-68
2022/03/28 10:05:50;;;;;;;9.98;7.10;;;;;;;;;;4990917;28;20051;-70
2022/03/28 10:08:16;;;;;;;11.25;6.85;;;;;;;;;;4973121;28;20073;-71
2022/03/28 10:10:43;;;;;;;8.75;6.20;;;;;;;;;;4995045;28;20046;-67
2022/03/28 10:13:10;;;;;;;10.40;6.45;;;;;;;;;;4970607;28;20046;-67
2022/03/28 10:15:36;;;;;;;12.98;7.28;;;;;;;;;;4981010;28;20046;-68
2022/03/28 10:18:02;;;;;;;11.02;7.65;;;;;;;;;;4994673;28;20050;-67
2022/03/28 10:20:28;;;;;;;10.82;7.15;;;;;;;;;;4989290;28;20042;-69
2022/03/28 10:22:55;;;;;;;11.75;8.25;;;;;;;;;;4984611;28;20113;-68
2022/03/28 10:25:22;;;;;;;10.38;7.40;;;;;;;;;;4994520;28;20046;-68
2022/03/28 10:27:48;;;;;;;10.23;7.25;;;;;;;;;;4992097;28;20054;-68
2022/03/28 10:30:20;;;;;;;9.98;7.22;;;;;;;;;;4995004;28;20391;-68
2022/03/28 10:32:46;;;;;;;;;;;;;;;;;;4974957;28;20494;-69
2022/03/28 10:35:16;;;;;;;10.27;7.97;;;;;;;;;;4986775;28;19972;-68
2022/03/28 10:37:47;;;;;;;10.38;7.78;;;;;;;;;;4965523;28;20053;-67
2022/03/28 10:40:23;;;;;;;10.63;7.47;;;;;;;;;;4994622;28;20116;-69
2022/03/28 10:42:55;;;;;;;10.57;7.22;;;;;;;;;;4983697;28;20055;-69
2022/03/28 10:45:22;;;;;;;9.52;7.80;;;;;;;;;;4993928;28;20043;-68
2022/03/28 10:47:55;;;;;;;12.75;7.30;;;;;;;;;;4975324;28;20188;-68
2022/03/28 10:50:29;;;;;;;11.30;7.45;;;;;;;;;;4980838;28;20081;-68
2022/03/28 10:53:10;;;;;;;10.88;8.13;;;;;;;;;;4993089;28;20121;-71
2022/03/28 10:55:38;;;;;;;10.48;7.85;;;;;;;;;;4977272;28;20050;-70
2022/03/28 10:58:27;;;;;;;12.20;8.30;;;;;;;;;;4986807;28;20097;-68
2022/03/28 11:01:12;;;;;;;9.70;7.65;;;;;;;;;;4967187;28;20062;-68
2022/03/28 11:03:47;;;;;;;11.77;8.35;;;;;;;;;;4975265;28;20137;-68
2022/03/28 11:06:14;;;;;;;10.45;8.20;;;;;;;;;;4993122;28;20073;-70
2022/03/28 11:08:42;;;;;;;12.20;8.88;;;;;;;;;;4978968;28;20561;-69
2022/03/28 11:11:17;;;;;;;10.30;7.57;;;;;;;;;;4974814;28;20053;-68
2022/03/28 11:13:43;;;;;;;11.30;8.25;;;;;;;;;;4975540;28;20102;-68
2022/03/28 11:16:19;;;;;;;11.32;8.45;;;;;;;;;;4974908;28;20046;-68
2022/03/28 11:19:05;;;;;;;11.00;8.02;;;;;;;;;;4966519;28;20046;-71
2022/03/28 11:21:31;;;;;;;9.88;7.55;;;;;;;;;;4974234;28;20051;-67
2022/03/28 11:24:07;;;;;;;10.85;8.25;;;;;;;;;;4988627;28;20128;-69
2022/03/28 11:26:33;;;;;;;10.98;7.82;;;;;;;;;;4981787;28;20398;-68
2022/03/28 11:29:05;;;;;;;9.98;7.97;;;;;;;;;;4992141;28;20050;-67
2022/03/28 11:31:31;;;;;;;11.63;8.50;;;;;;;;;;4981718;28;20053;-68
2022/03/28 11:33:57;;;;;;;11.65;8.45;;;;;;;;;;4974532;28;20042;-68
2022/03/28 11:36:23;;;;;;;12.10;9.23;;;;;;;;;;4990820;28;20050;-68
2022/03/28 11:38:54;;;;;;;11.52;8.70;;;;;;;;;;4978206;28;20101;-68
2022/03/28 11:41:22;;;;;;;11.35;8.68;;;;;;;;;;4977108;28;20055;-68
2022/03/28 11:43:52;;;;;;;12.45;8.95;;;;;;;;;;4985484;28;20058;-68
2022/03/28 11:46:23;;;;;;;11.13;9.05;;;;;;;;;;4989148;28;20516;-68
2022/03/28 11:49:04;;;;;;;11.50;9.45;;;;;;;;;;4988564;28;20054;-68
2022/03/28 11:51:31;;;;;;;12.13;9.50;;;;;;;;;;4978677;28;20097;-68
2022/03/28 11:53:58;;;;;;;12.68;10.05;;;;;;;;;;4964086;28;20084;-68
2022/03/28 11:56:25;;;;;;;12.60;9.45;;;;;;;;;;4986545;28;20145;-67
2022/03/28 11:58:51;;;;;;;12.27;10.25;;;;;;;;;;4986431;28;20454;-68
2022/03/28 12:01:18;;;;;;;11.45;9.88;;;;;;;;;;4989955;28;20042;-68
2022/03/28 12:03:48;;;;;;;12.70;9.48;;;;;;;;;;4975565;28;20142;-72
2022/03/28 12:06:25;;;;;;;10.60;9.02;;;;;;;;;;4983349;28;20047;-75
2022/03/28 12:08:51;;;;;;;12.80;9.60;;;;;;;;;;4978026;28;20117;-67
2022/03/28 12:11:17;;;;;;;13.13;10.40;;;;;;;;;;4992706;28;20544;-73
2022/03/28 12:13:43;;;;;;;12.75;9.80;;;;;;;;;;4989881;28;20046;-68
2022/03/28 12:16:09;;;;;;;14.05;9.65;;;;;;;;;;4992968;28;20061;-69
2022/03/28 12:18:35;;;;;;;13.07;10.38;;;;;;;;;;4991695;28;20409;-69
2022/03/28 12:21:01;;;;;;;12.77;10.82;;;;;;;;;;4978159;28;20418;-69
2022/03/28 12:23:28;;;;;;;15.75;10.80;;;;;;;;;;4966536;28;20442;-66
2022/03/28 12:25:55;;;;;;;14.27;10.50;;;;;;;;;;4975604;28;20046;-66
2022/03/28 12:28:29;;;;;;;13.07;10.63;;;;;;;;;;4976821;28;20076;-68
2022/03/28 12:30:56;;;;;;;12.38;9.93;;;;;;;;;;4976346;28;20453;-69
2022/03/28 12:33:27;;;;;;;13.38;10.63;;;;;;;;;;4973350;28;20043;-67
2022/03/28 12:35:58;;;;;;;12.27;10.65;;;;;;;;;;4986731;28;20460;-68
2022/03/28 12:38:26;;;;;;;16.83;10.70;;;;;;;;;;4993119;28;20053;-68
2022/03/28 12:40:53;;;;;;;13.50;10.68;;;;;;;;;;4981848;28;20106;-70
2022/03/28 12:43:23;;;;;;;13.40;10.90;;;;;;;;;;4971612;28;20055;-68
2022/03/28 12:45:49;;;;;;;14.00;11.00;;;;;;;;;;4981484;28;20546;-68
2022/03/28 12:48:15;;;;;;;16.23;11.27;;;;;;;;;;4973435;28;20121;-72
2022/03/28 12:50:52;;;;;;;14.00;11.23;;;;;;;;;;4974477;28;20054;-69
2022/03/28 12:53:18;;;;;;;13.45;11.45;;;;;;;;;;4984705;28;20089;-69
2022/03/28 12:55:45;;;;;;;14.00;11.13;;;;;;;;;;4979413;28;20058;-69
2022/03/28 12:58:12;;;;;;;14.80;11.80;;;;;;;;;;4992599;28;20536;-69
2022/03/28 13:00:40;;;;;;;14.68;11.57;;;;;;;;;;4963211;28;20110;-67
2022/03/28 13:03:06;;;;;;;14.00;11.48;;;;;;;;;;4981118;28;20456;-68
2022/03/28 13:05:34;;;;;;;14.00;11.85;;;;;;;;;;4981728;28;20043;-67
2022/03/28 13:08:03;;;;;;;14.50;12.20;;;;;;;;;;4990253;28;20042;-68
2022/03/28 13:10:32;;;;;;;14.45;11.70;;;;;;;;;;4983564;28;20042;-72
2022/03/28 13:12:58;;;;;;;15.15;12.55;;;;;;;;;;4983700;28;20046;-68
2022/03/28 13:15:28;;;;;;;14.23;12.30;;;;;;;;;;4988722;28;20077;-68
2022/03/28 13:18:10;;;;;;;15.40;12.07;;;;;;;;;;4975839;28;20058;-68
2022/03/28 13:20:38;;;;;;;16.00;12.80;;;;;;;;;;4992414;28;20046;-68
2022/03/28 13:23:04;;;;;;;14.13;11.82;;;;;;;;;;4992631;28;20043;-68
2022/03/28 13:25:42;;;;;;;15.57;13.02;;;;;;;;;;4992787;28;20161;-68
2022/03/28 13:28:13;;;;;;;14.98;12.63;;;;;;;;;;4992620;28;20512;-68
2022/03/28 13:30:39;;;;;;;15.20;12.35;;;;;;;;;;4973535;28;20498;-68
2022/03/28 13:33:05;;;;;;;14.93;12.68;;;;;;;;;;4962593;28;20051;-68
2022/03/28 13:35:32;;;;;;;15.98;13.52;;;;;;;;;;4995549;28;20089;-68
2022/03/28 13:37:59;;;;;;;13.70;12.20;;;;;;;;;;4978936;28;20050;-68
2022/03/28 13:40:26;;;;;;;15.23;11.43;;;;;;;;;;4995219;28;20134;-69
2022/03/28 13:42:52;;;;;;;17.05;12.07;;;;;;;;;;4995479;28;20097;-68
2022/03/28 13:45:19;;;;;;;13.77;12.27;;;;;;;;;;4978480;28;20046;-69
2022/03/28 13:47:45;;;;;;;15.75;12.38;;;;;;;;;;4992325;28;20389;-67
2022/03/28 13:50:12;;;;;;;14.25;12.73;;;;;;;;;;4991330;28;20409;-69
2022/03/28 13:52:38;;;;;;;14.35;12.55;;;;;;;;;;4974284;28;20126;-67
2022/03/28 13:55:04;;;;;;;14.48;12.75;;;;;;;;;;4976095;28;20078;-68
2022/03/28 13:57:30;;;;;;;14.75;13.05;;;;;;;;;;4979569;28;20498;-67
2022/03/28 13:59:57;;;;;;;15.07;13.02;;;;;;;;;;4994069;28;20054;-68
2022/03/28 14:02:23;;;;;;;15.43;13.30;;;;;;;;;;4978008;28;20054;-68
2022/03/28 14:04:49;;;;;;;16.65;12.98;;;;;;;;;;4960256;28;20106;-76
2022/03/28 14:07:16;;;;;;;14.50;12.88;;;;;;;;;;4975725;28;20043;-71
2022/03/28 14:09:42;;;;;;;14.82;12.88;;;;;;;;;;4977007;28;20039;-67
2022/03/28 14:12:08;;;;;;;16.08;13.77;;;;;;;;;;4983719;28;20066;-67
2022/03/28 14:14:35;;;;;;;19.85;14.27;;;;;;;;;;4976152;28;20050;-68
2022/03/28 14:17:02;;;;;;;18.15;13.73;;;;;;;;;;4995326;28;20084;-69
2022/03/28 14:19:29;;;;;;;20.17;15.35;;;;;;;;;;4993347;28;20517;-67
2022/03/28 14:21:55;;;;;;;20.13;16.65;;;;;;;;;;4995138;28;20489;-67
2022/03/28 14:24:21;;;;;;;21.60;17.40;;;;;;;;;;4981049;28;20057;-67